METAR LOCAUX

2019/12/10 00:00 LFST 100000Z AUTO 31012KT 9999 FEW036 05/02 Q1022 NOSIG
2019/12/10 00:20 EDSB 100020Z AUTO 30004KT 260V350 9999 FEW035/// BKN047/// 06/01 Q1022
2019/12/10 00:00 LFGA 100000Z AUTO 33012KT CAVOK 06/00 Q1022
www.noaa.gov

Ne pas utiliser pour préparer ou effectuer un vol: Utilisez la documentation officielle disponible sur aviation.meteo.fr (Aéroweb)


"Le soleil du matin ne dure pas forcément toute la journée."

Animation satellite IR

Meteociel.fr

"Derrière chaque nuage se cache le ciel bleu."

Radar pluie

Infoclimat.fr

"Si tu veux l’arc-en-ciel, tu dois supporter la pluie."
Dolly Parton

Nébulosité (octas)

Meteociel.fr

"Le soleil est souvent obscurci par les nuages et la raison par les passions."
Démophile

Impacts de foudre

www.meteo60.fr

"Celui que frappe la foudre n'entend pas le tonnerre."

Vigilance météo

vigilance-meteo.fr

"Tout nuage n'enfante pas une tempête."
William Shakespeare

TAF locaux

2019/12/09 18:42 TAF LFST 091700Z 0918/1018 31010KT 9999 BKN040 BKN090 BKN160 TEMPO 0918/0923 31020G30KT -SHRA BKN025TCU BECMG 1006/1008 17006KT CAVOK
2019/12/09 22:57 TAF AMD TAF AMD EDSB 092252Z 0922/1018 CNL
www.noaa.gov

Ne pas utiliser pour préparer ou effectuer un vol: Utilisez la documentation officielle disponible sur aviation.meteo.fr (Aéroweb)


"Les jours où le ciel est gris, le soleil n'a pas disparu à tout jamais."
Arnaud Desjardins

Prévisions 7 jours


Meteoblue.com

"Quand les crapauds chantent, le beau temps s'avance !"